createdAt,value
2023-01-07T00:00:18.137Z,11.51
2023-01-07T00:01:18.074Z,11.51
2023-01-07T00:02:18.128Z,11.49
2023-01-07T00:03:18.036Z,11.49
2023-01-07T00:04:18.039Z,11.49
2023-01-07T00:05:18.060Z,11.51
2023-01-07T00:06:18.015Z,11.48
2023-01-07T00:07:17.993Z,11.49
2023-01-07T00:08:17.999Z,11.49
2023-01-07T00:09:17.991Z,11.51
2023-01-07T00:10:17.980Z,11.51
2023-01-07T00:11:17.981Z,11.51
2023-01-07T00:12:17.957Z,11.53
2023-01-07T00:13:17.938Z,11.53
2023-01-07T00:14:17.925Z,11.53
2023-01-07T00:15:17.910Z,11.51
2023-01-07T00:16:17.954Z,11.53
2023-01-07T00:17:17.900Z,11.51
2023-01-07T00:18:17.878Z,11.51
2023-01-07T00:19:17.909Z,11.51
2023-01-07T00:20:17.859Z,11.53
2023-01-07T00:21:17.861Z,11.53
2023-01-07T00:22:17.849Z,11.53
2023-01-07T00:23:17.860Z,11.51
2023-01-07T00:24:18.581Z,11.53
2023-01-07T00:25:17.801Z,11.53
2023-01-07T00:26:17.824Z,11.53
2023-01-07T00:27:17.795Z,11.53
2023-01-07T00:28:17.792Z,11.51
2023-01-07T00:29:17.760Z,11.51
2023-01-07T00:30:17.761Z,11.51
2023-01-07T00:31:17.879Z,11.49
2023-01-07T00:32:17.765Z,11.49
2023-01-07T00:33:17.737Z,11.49
2023-01-07T00:34:17.718Z,11.48
2023-01-07T00:35:17.712Z,11.48
2023-01-07T00:36:17.705Z,11.49
2023-01-07T00:37:17.705Z,11.48
2023-01-07T00:38:17.670Z,11.48
2023-01-07T00:39:17.672Z,11.48
2023-01-07T00:40:17.652Z,11.48
2023-01-07T00:41:17.648Z,11.46
2023-01-07T00:42:17.648Z,11.46
2023-01-07T00:43:17.625Z,11.48
2023-01-07T00:44:17.664Z,11.46
2023-01-07T00:45:17.592Z,11.46
2023-01-07T00:46:17.662Z,11.48
2023-01-07T00:47:17.582Z,11.46
2023-01-07T00:48:17.564Z,11.46
2023-01-07T00:49:17.683Z,11.46
2023-01-07T00:50:17.554Z,11.45
2023-01-07T00:51:17.542Z,11.45
2023-01-07T00:52:17.522Z,11.45
2023-01-07T00:53:17.505Z,11.44
2023-01-07T00:54:17.501Z,11.45
2023-01-07T00:55:17.527Z,11.44
2023-01-07T00:56:17.493Z,11.45
2023-01-07T00:57:17.475Z,11.45
2023-01-07T00:58:17.459Z,11.45
2023-01-07T00:59:17.436Z,11.45
2023-01-07T01:00:17.462Z,11.44
2023-01-07T01:01:17.658Z,11.44
2023-01-07T01:02:17.484Z,11.44
2023-01-07T01:03:17.397Z,11.44
2023-01-07T01:04:17.413Z,11.44
2023-01-07T01:05:17.398Z,11.45
2023-01-07T01:06:17.424Z,11.44
2023-01-07T01:07:17.367Z,11.44
2023-01-07T01:08:17.349Z,11.44
2023-01-07T01:09:17.339Z,11.42
2023-01-07T01:10:17.376Z,11.44
2023-01-07T01:11:17.341Z,11.44
2023-01-07T01:12:17.317Z,11.46
2023-01-07T01:13:18.284Z,11.46
2023-01-07T01:14:17.300Z,11.45
2023-01-07T01:15:17.289Z,11.46
2023-01-07T01:16:17.378Z,11.45
2023-01-07T01:17:17.248Z,11.42
2023-01-07T01:18:17.277Z,11.42
2023-01-07T01:19:17.299Z,11.44
2023-01-07T01:20:17.231Z,11.44
2023-01-07T01:21:17.319Z,11.44
2023-01-07T01:22:17.220Z,11.45
2023-01-07T01:23:17.185Z,11.44
2023-01-07T01:24:17.197Z,11.42
2023-01-07T01:25:17.188Z,11.44
2023-01-07T01:26:17.197Z,11.44
2023-01-07T01:27:17.155Z,11.42
2023-01-07T01:28:17.168Z,11.44
2023-01-07T01:29:17.141Z,11.42
2023-01-07T01:30:17.121Z,11.42
2023-01-07T01:31:17.128Z,11.42
2023-01-07T01:32:17.109Z,11.44
2023-01-07T01:33:17.095Z,11.42
2023-01-07T01:34:17.091Z,11.42
2023-01-07T01:35:17.062Z,11.42
2023-01-07T01:36:17.051Z,11.42
2023-01-07T01:37:17.054Z,11.42
2023-01-07T01:38:17.051Z,11.42
2023-01-07T01:39:17.048Z,11.42
2023-01-07T01:40:17.032Z,11.42
2023-01-07T01:41:16.993Z,11.42
2023-01-07T01:42:17.000Z,11.42
2023-01-07T01:43:16.983Z,11.41
2023-01-07T01:44:16.965Z,11.42
2023-01-07T01:45:16.972Z,11.42
2023-01-07T01:46:17.029Z,11.42
2023-01-07T01:47:16.932Z,11.41
2023-01-07T01:48:16.954Z,11.39
2023-01-07T01:49:16.934Z,11.39
2023-01-07T01:50:16.942Z,11.38
2023-01-07T01:51:16.885Z,11.38
2023-01-07T01:52:16.876Z,11.36
2023-01-07T01:53:16.895Z,11.36
2023-01-07T01:54:16.867Z,11.36
2023-01-07T01:55:16.904Z,11.36
2023-01-07T01:56:16.854Z,11.36
2023-01-07T01:57:16.845Z,11.36
2023-01-07T01:58:16.826Z,11.36
2023-01-07T01:59:16.813Z,11.35
2023-01-07T02:00:16.848Z,11.33
2023-01-07T02:01:16.978Z,11.33
2023-01-07T02:02:16.894Z,11.33
2023-01-07T02:03:16.796Z,11.36
2023-01-07T02:04:16.760Z,11.35
2023-01-07T02:05:16.741Z,11.33
2023-01-07T02:06:16.771Z,11.35
2023-01-07T02:07:16.746Z,11.35
2023-01-07T02:08:16.691Z,11.35
2023-01-07T02:09:16.685Z,11.35
2023-01-07T02:10:16.669Z,11.33
2023-01-07T02:11:16.663Z,11.33
2023-01-07T02:12:16.658Z,11.33
2023-01-07T02:13:16.632Z,11.33
2023-01-07T02:14:16.622Z,11.31
2023-01-07T02:15:16.633Z,11.31
2023-01-07T02:16:16.643Z,11.30
2023-01-07T02:17:16.614Z,11.30
2023-01-07T02:18:16.581Z,11.28
2023-01-07T02:19:16.584Z,11.30
2023-01-07T02:20:16.560Z,11.30
2023-01-07T02:21:16.560Z,11.28
2023-01-07T02:22:16.552Z,11.28
2023-01-07T02:23:16.533Z,11.28
2023-01-07T02:24:16.518Z,11.28
2023-01-07T02:25:16.514Z,11.27
2023-01-07T02:26:16.536Z,11.28
2023-01-07T02:27:16.505Z,11.28
2023-01-07T02:28:16.506Z,11.28
2023-01-07T02:29:16.505Z,11.27
2023-01-07T02:30:16.454Z,11.27
2023-01-07T02:31:16.524Z,11.27
2023-01-07T02:32:16.446Z,11.27
2023-01-07T02:33:16.426Z,11.26
2023-01-07T02:34:16.407Z,11.26
2023-01-07T02:35:16.404Z,11.26
2023-01-07T02:36:16.386Z,11.24
2023-01-07T02:37:16.399Z,11.23
2023-01-07T02:38:16.369Z,11.21
2023-01-07T02:39:16.377Z,11.23
2023-01-07T02:40:16.350Z,11.21
2023-01-07T02:41:16.337Z,11.20
2023-01-07T02:42:16.348Z,11.20
2023-01-07T02:43:16.355Z,11.19
2023-01-07T02:44:16.313Z,11.19
2023-01-07T02:45:16.306Z,11.19
2023-01-07T02:46:16.408Z,11.19
2023-01-07T02:47:16.278Z,11.20
2023-01-07T02:48:16.277Z,11.20
2023-01-07T02:49:16.249Z,11.21
2023-01-07T02:50:16.259Z,11.20
2023-01-07T02:51:16.239Z,11.20
2023-01-07T02:52:16.219Z,11.23
2023-01-07T02:53:16.223Z,11.21
2023-01-07T02:54:16.199Z,11.21
2023-01-07T02:55:16.189Z,11.21
2023-01-07T02:56:16.189Z,11.20
2023-01-07T02:57:16.169Z,11.20
2023-01-07T02:58:16.159Z,11.23
2023-01-07T02:59:16.159Z,11.21
2023-01-07T03:00:16.135Z,11.21
2023-01-07T03:01:16.242Z,11.20
2023-01-07T03:02:16.112Z,11.19
2023-01-07T03:03:16.121Z,11.19
2023-01-07T03:04:16.138Z,11.16
2023-01-07T03:05:16.107Z,11.13
2023-01-07T03:06:16.082Z,11.13
2023-01-07T03:07:16.087Z,11.16
2023-01-07T03:08:16.065Z,11.13
2023-01-07T03:09:16.052Z,11.17
2023-01-07T03:10:16.047Z,11.17
2023-01-07T03:11:16.022Z,11.16
2023-01-07T03:12:16.021Z,11.16
2023-01-07T03:13:15.997Z,11.16
2023-01-07T03:14:16.001Z,11.17
2023-01-07T03:15:15.986Z,11.17
2023-01-07T03:16:16.018Z,11.16
2023-01-07T03:17:15.962Z,11.16
2023-01-07T03:18:15.964Z,11.16
2023-01-07T03:19:15.935Z,11.13
2023-01-07T03:20:15.927Z,11.16
2023-01-07T03:21:15.913Z,11.13
2023-01-07T03:22:15.917Z,11.12
2023-01-07T03:23:15.906Z,11.12
2023-01-07T03:24:15.885Z,11.13
2023-01-07T03:25:15.875Z,11.12
2023-01-07T03:26:15.856Z,11.12
2023-01-07T03:27:15.862Z,11.13
2023-01-07T03:28:15.881Z,11.13
2023-01-07T03:29:15.833Z,11.12
2023-01-07T03:30:15.821Z,11.12
2023-01-07T03:31:15.833Z,11.12
2023-01-07T03:32:15.799Z,11.13
2023-01-07T03:33:15.806Z,11.13
2023-01-07T03:34:15.973Z,11.11
2023-01-07T03:35:15.765Z,11.12
2023-01-07T03:36:15.747Z,11.13
2023-01-07T03:37:15.765Z,11.13
2023-01-07T03:38:15.732Z,11.11
2023-01-07T03:39:15.727Z,11.11
2023-01-07T03:40:15.707Z,11.11
2023-01-07T03:41:15.708Z,11.12
2023-01-07T03:42:15.688Z,11.12
2023-01-07T03:43:15.686Z,11.11
2023-01-07T03:44:15.709Z,11.11
2023-01-07T03:45:15.667Z,11.11
2023-01-07T03:46:15.773Z,11.11
2023-01-07T03:47:15.642Z,11.11
2023-01-07T03:48:15.634Z,11.11
2023-01-07T03:49:15.638Z,11.11
2023-01-07T03:50:15.608Z,11.11
2023-01-07T03:51:15.604Z,11.12
2023-01-07T03:52:15.585Z,11.12
2023-01-07T03:53:15.580Z,11.12
2023-01-07T03:54:15.564Z,11.11
2023-01-07T03:55:15.561Z,11.09
2023-01-07T03:56:15.548Z,11.09
2023-01-07T03:57:15.534Z,11.09
2023-01-07T03:58:15.540Z,11.11
2023-01-07T03:59:15.511Z,11.09
2023-01-07T04:00:15.499Z,11.09
2023-01-07T04:01:15.619Z,11.08
2023-01-07T04:02:15.508Z,11.09
2023-01-07T04:03:15.469Z,11.06
2023-01-07T04:04:15.493Z,11.08
2023-01-07T04:05:15.449Z,11.06
2023-01-07T04:06:15.451Z,11.06
2023-01-07T04:07:15.423Z,11.06
2023-01-07T04:08:15.415Z,11.06
2023-01-07T04:09:15.406Z,11.06
2023-01-07T04:10:15.400Z,11.08
2023-01-07T04:11:15.396Z,11.06
2023-01-07T04:12:15.373Z,11.06
2023-01-07T04:13:15.364Z,11.08
2023-01-07T04:14:15.355Z,11.06
2023-01-07T04:15:15.356Z,11.06
2023-01-07T04:16:15.375Z,11.06
2023-01-07T04:17:15.314Z,11.06
2023-01-07T04:18:15.313Z,11.06
2023-01-07T04:19:15.314Z,11.06
2023-01-07T04:20:15.293Z,11.06
2023-01-07T04:21:15.333Z,11.05
2023-01-07T04:22:15.272Z,11.05
2023-01-07T04:23:15.278Z,11.06
2023-01-07T04:24:15.249Z,11.05
2023-01-07T04:25:15.240Z,11.03
2023-01-07T04:26:15.224Z,11.02
2023-01-07T04:27:15.215Z,11.03
2023-01-07T04:28:15.207Z,11.03
2023-01-07T04:29:15.206Z,11.02
2023-01-07T04:30:15.197Z,11.02
2023-01-07T04:31:15.218Z,11.02
2023-01-07T04:32:15.161Z,11.01
2023-01-07T04:33:15.157Z,11.01
2023-01-07T04:34:15.157Z,10.98
2023-01-07T04:35:15.124Z,10.99
2023-01-07T04:36:15.134Z,11.01
2023-01-07T04:37:15.106Z,11.01
2023-01-07T04:38:15.127Z,11.01
2023-01-07T04:39:15.086Z,11.01
2023-01-07T04:40:15.077Z,11.02
2023-01-07T04:41:15.087Z,11.01
2023-01-07T04:42:15.069Z,11.01
2023-01-07T04:43:15.038Z,10.99
2023-01-07T04:44:15.047Z,10.98
2023-01-07T04:45:15.019Z,10.94
2023-01-07T04:46:15.090Z,10.93
2023-01-07T04:47:15.006Z,10.94
2023-01-07T04:48:14.993Z,10.93
2023-01-07T04:49:14.978Z,10.90
2023-01-07T04:50:14.983Z,10.91
2023-01-07T04:51:14.969Z,10.90
2023-01-07T04:52:15.026Z,10.90
2023-01-07T04:53:14.930Z,10.91
2023-01-07T04:54:14.933Z,10.90
2023-01-07T04:55:14.910Z,10.90
2023-01-07T04:56:14.905Z,10.90
2023-01-07T04:57:14.898Z,10.91
2023-01-07T04:58:14.891Z,10.88
2023-01-07T04:59:14.892Z,10.91
2023-01-07T05:00:14.869Z,10.91
2023-01-07T05:01:14.969Z,10.91
2023-01-07T05:02:14.908Z,10.93
2023-01-07T05:03:14.862Z,10.93
2023-01-07T05:04:14.869Z,10.93
2023-01-07T05:05:14.811Z,10.91
2023-01-07T05:06:14.803Z,10.91
2023-01-07T05:07:14.794Z,10.91
2023-01-07T05:08:14.782Z,10.91
2023-01-07T05:09:14.772Z,10.91
2023-01-07T05:10:14.783Z,10.88
2023-01-07T05:11:14.743Z,10.88
2023-01-07T05:12:14.973Z,10.88
2023-01-07T05:13:14.743Z,10.87
2023-01-07T05:14:14.713Z,10.86
2023-01-07T05:15:14.706Z,10.86
2023-01-07T05:16:14.949Z,10.84
2023-01-07T05:17:14.692Z,10.86
2023-01-07T05:18:14.701Z,10.86
2023-01-07T05:19:14.656Z,10.84
2023-01-07T05:20:14.655Z,10.86
2023-01-07T05:21:14.646Z,10.83
2023-01-07T05:22:14.640Z,10.83
2023-01-07T05:23:14.619Z,10.83
2023-01-07T05:24:14.606Z,10.81
2023-01-07T05:25:14.615Z,10.83
2023-01-07T05:26:14.619Z,10.83
2023-01-07T05:27:14.586Z,10.83
2023-01-07T05:28:14.566Z,10.83
2023-01-07T05:29:14.557Z,10.84
2023-01-07T05:30:14.553Z,10.86
2023-01-07T05:31:14.582Z,10.84
2023-01-07T05:32:14.531Z,10.86
2023-01-07T05:33:14.510Z,10.88
2023-01-07T05:34:14.527Z,10.87
2023-01-07T05:35:14.490Z,10.87
2023-01-07T05:36:14.516Z,10.88
2023-01-07T05:37:14.468Z,10.87
2023-01-07T05:38:14.459Z,10.88
2023-01-07T05:39:14.449Z,10.87
2023-01-07T05:40:14.448Z,10.87
2023-01-07T05:41:14.448Z,10.87
2023-01-07T05:42:14.418Z,10.87
2023-01-07T05:43:14.411Z,10.87
2023-01-07T05:44:14.396Z,10.87
2023-01-07T05:45:14.389Z,10.87
2023-01-07T05:46:14.435Z,10.86
2023-01-07T05:47:14.364Z,10.86
2023-01-07T05:48:14.372Z,10.87
2023-01-07T05:49:14.350Z,10.86
2023-01-07T05:50:14.330Z,10.87
2023-01-07T05:51:14.321Z,10.86
2023-01-07T05:52:14.312Z,10.86
2023-01-07T05:53:14.320Z,10.86
2023-01-07T05:54:14.289Z,10.86
2023-01-07T05:55:14.281Z,10.86
2023-01-07T05:56:14.293Z,10.84
2023-01-07T05:57:14.272Z,10.84
2023-01-07T05:58:14.254Z,10.84
2023-01-07T05:59:14.239Z,10.83
2023-01-07T06:00:14.231Z,10.83
2023-01-07T06:01:14.299Z,10.80
2023-01-07T06:02:14.233Z,10.80
2023-01-07T06:03:14.219Z,10.80
2023-01-07T06:04:14.193Z,10.78
2023-01-07T06:05:14.183Z,10.76
2023-01-07T06:06:14.197Z,10.75
2023-01-07T06:07:14.151Z,10.73
2023-01-07T06:08:14.193Z,10.73
2023-01-07T06:09:14.134Z,10.75
2023-01-07T06:10:14.126Z,10.73
2023-01-07T06:11:14.118Z,10.73
2023-01-07T06:12:14.117Z,10.73
2023-01-07T06:13:14.088Z,10.73
2023-01-07T06:14:14.075Z,10.73
2023-01-07T06:15:14.082Z,10.75
2023-01-07T06:16:14.153Z,10.75
2023-01-07T06:17:14.045Z,10.73
2023-01-07T06:18:14.037Z,10.75
2023-01-07T06:19:14.046Z,10.75
2023-01-07T06:20:14.026Z,10.76
2023-01-07T06:21:14.003Z,10.75
2023-01-07T06:22:14.008Z,10.76
2023-01-07T06:23:13.987Z,10.76
2023-01-07T06:24:13.976Z,10.76
2023-01-07T06:25:13.956Z,10.76
2023-01-07T06:26:13.955Z,10.76
2023-01-07T06:27:13.961Z,10.76
2023-01-07T06:28:13.937Z,10.76
2023-01-07T06:29:13.921Z,10.75
2023-01-07T06:30:13.906Z,10.76
2023-01-07T06:31:13.931Z,10.76
2023-01-07T06:32:13.890Z,10.76
2023-01-07T06:33:13.880Z,10.76
2023-01-07T06:34:13.867Z,10.78
2023-01-07T06:35:13.861Z,10.75
2023-01-07T06:36:13.869Z,10.76
2023-01-07T06:37:13.932Z,10.76
2023-01-07T06:38:13.876Z,10.73
2023-01-07T06:39:13.946Z,10.75
2023-01-07T06:40:13.822Z,10.75
2023-01-07T06:41:13.988Z,10.75
2023-01-07T06:42:13.785Z,10.75
2023-01-07T06:43:13.773Z,10.75
2023-01-07T06:44:13.781Z,10.75
2023-01-07T06:45:13.753Z,10.76
2023-01-07T06:46:13.761Z,10.76
2023-01-07T06:47:13.719Z,10.76
2023-01-07T06:48:13.750Z,10.73
2023-01-07T06:49:13.701Z,10.76
2023-01-07T06:50:13.697Z,10.76
2023-01-07T06:51:13.681Z,10.76
2023-01-07T06:52:13.672Z,10.76
2023-01-07T06:53:13.681Z,10.76
2023-01-07T06:54:13.650Z,10.78
2023-01-07T06:55:13.650Z,10.78
2023-01-07T06:56:13.630Z,10.76
2023-01-07T06:57:13.621Z,10.75
2023-01-07T06:58:13.633Z,10.76
2023-01-07T06:59:13.602Z,10.73
2023-01-07T07:00:13.602Z,10.73
2023-01-07T07:01:13.661Z,10.73
2023-01-07T07:02:13.700Z,10.73
2023-01-07T07:03:13.654Z,10.73
2023-01-07T07:04:13.547Z,10.75
2023-01-07T07:05:14.194Z,10.72
2023-01-07T07:06:13.534Z,10.72
2023-01-07T07:07:13.525Z,10.72
2023-01-07T07:08:13.510Z,10.72
2023-01-07T07:09:13.491Z,10.70
2023-01-07T07:10:13.496Z,10.70
2023-01-07T07:11:13.471Z,10.72
2023-01-07T07:12:13.484Z,10.69
2023-01-07T07:13:13.453Z,10.69
2023-01-07T07:14:13.467Z,10.69
2023-01-07T07:15:13.425Z,10.68
2023-01-07T07:16:13.480Z,10.66
2023-01-07T07:17:13.408Z,10.65
2023-01-07T07:18:13.396Z,10.65
2023-01-07T07:19:13.407Z,10.65
2023-01-07T07:20:13.390Z,10.65
2023-01-07T07:21:13.365Z,10.63
2023-01-07T07:22:13.356Z,10.63
2023-01-07T07:23:13.348Z,10.62
2023-01-07T07:24:13.358Z,10.62
2023-01-07T07:25:13.333Z,10.60
2023-01-07T07:26:13.353Z,10.60
2023-01-07T07:27:13.318Z,10.60
2023-01-07T07:28:13.297Z,10.60
2023-01-07T07:29:13.281Z,10.58
2023-01-07T07:30:13.291Z,10.58
2023-01-07T07:31:13.277Z,10.58
2023-01-07T07:32:13.272Z,10.60
2023-01-07T07:33:13.249Z,10.57
2023-01-07T07:34:13.227Z,10.55
2023-01-07T07:35:13.227Z,10.55
2023-01-07T07:36:13.207Z,10.55
2023-01-07T07:37:13.196Z,10.55
2023-01-07T07:38:13.202Z,10.54
2023-01-07T07:39:13.208Z,10.54
2023-01-07T07:40:13.167Z,10.54
2023-01-07T07:41:13.174Z,10.54
2023-01-07T07:42:13.147Z,10.54
2023-01-07T07:43:13.413Z,10.52
2023-01-07T07:44:13.128Z,10.52
2023-01-07T07:45:13.128Z,10.51
2023-01-07T07:46:13.189Z,10.52
2023-01-07T07:47:13.088Z,10.51
2023-01-07T07:48:13.089Z,10.51
2023-01-07T07:49:13.081Z,10.52
2023-01-07T07:50:13.068Z,10.51
2023-01-07T07:51:13.064Z,10.47
2023-01-07T07:52:13.040Z,10.44
2023-01-07T07:53:13.030Z,10.44
2023-01-07T07:54:13.020Z,10.46
2023-01-07T07:55:20.676Z,10.47
2023-01-07T07:56:14.015Z,10.49
2023-01-07T07:57:13.010Z,10.51
2023-01-07T07:58:12.982Z,10.52
2023-01-07T07:59:12.991Z,10.54
2023-01-07T08:00:12.958Z,10.54
2023-01-07T08:01:12.977Z,10.55
2023-01-07T08:02:12.964Z,10.58
2023-01-07T08:03:12.969Z,10.58
2023-01-07T08:04:12.921Z,10.58
2023-01-07T08:05:12.927Z,10.57
2023-01-07T08:06:12.904Z,10.57
2023-01-07T08:07:12.874Z,10.57
2023-01-07T08:08:12.876Z,10.58
2023-01-07T08:09:12.860Z,10.60
2023-01-07T08:10:12.881Z,10.60
2023-01-07T08:11:12.837Z,10.62
2023-01-07T08:12:12.822Z,10.62
2023-01-07T08:13:12.845Z,10.60
2023-01-07T08:14:12.804Z,10.60
2023-01-07T08:15:12.804Z,10.62
2023-01-07T08:16:12.861Z,10.63
2023-01-07T08:17:12.774Z,10.63
2023-01-07T08:18:12.773Z,10.65
2023-01-07T08:19:12.764Z,10.66
2023-01-07T08:20:12.740Z,10.68
2023-01-07T08:21:12.747Z,10.69
2023-01-07T08:22:12.736Z,10.69
2023-01-07T08:23:12.710Z,10.70
2023-01-07T08:24:13.415Z,10.70
2023-01-07T08:25:12.706Z,10.69
2023-01-07T08:26:13.817Z,10.70
2023-01-07T08:27:12.674Z,10.69
2023-01-07T08:28:13.355Z,10.69
2023-01-07T08:29:12.655Z,10.72
2023-01-07T08:30:12.700Z,10.70
2023-01-07T08:31:12.669Z,10.70
2023-01-07T08:32:13.238Z,10.70
2023-01-07T08:33:12.605Z,10.70
2023-01-07T08:34:12.827Z,10.73
2023-01-07T08:35:12.587Z,10.73
2023-01-07T08:36:22.639Z,10.75
2023-01-07T08:37:13.576Z,10.76
2023-01-07T08:38:12.565Z,10.76
2023-01-07T08:39:12.551Z,10.80
2023-01-07T08:40:12.527Z,10.81
2023-01-07T08:41:12.523Z,10.81
2023-01-07T08:42:12.527Z,10.83
2023-01-07T08:43:12.515Z,10.83
2023-01-07T08:44:12.478Z,10.84
2023-01-07T08:45:12.482Z,10.83
2023-01-07T08:46:12.464Z,10.86
2023-01-07T08:47:12.488Z,10.86
2023-01-07T08:48:12.460Z,10.86
2023-01-07T08:49:12.454Z,10.88
2023-01-07T08:50:12.419Z,10.88
2023-01-07T08:51:12.412Z,10.91
2023-01-07T08:52:12.399Z,10.93
2023-01-07T08:53:12.389Z,10.93
2023-01-07T08:54:12.389Z,10.94
2023-01-07T08:55:12.376Z,10.94
2023-01-07T08:56:12.350Z,10.94
2023-01-07T08:57:12.381Z,10.94
2023-01-07T08:58:12.332Z,10.95
2023-01-07T08:59:12.338Z,10.95
2023-01-07T09:00:13.587Z,10.98
2023-01-07T09:01:12.486Z,10.98
2023-01-07T09:02:12.431Z,10.98
2023-01-07T09:03:12.286Z,10.99
2023-01-07T09:04:12.270Z,11.01
2023-01-07T09:05:12.267Z,11.02
2023-01-07T09:06:12.269Z,11.02
2023-01-07T09:07:12.249Z,11.03
2023-01-07T09:08:12.236Z,11.05
2023-01-07T09:09:12.216Z,11.05
2023-01-07T09:10:12.205Z,11.05
2023-01-07T09:11:12.236Z,11.05
2023-01-07T09:12:12.185Z,11.05
2023-01-07T09:13:12.192Z,11.06
2023-01-07T09:14:12.199Z,11.08
2023-01-07T09:15:12.155Z,11.08
2023-01-07T09:16:12.158Z,11.08
2023-01-07T09:17:12.133Z,11.08
2023-01-07T09:18:12.125Z,11.09
2023-01-07T09:19:12.113Z,11.11
2023-01-07T09:20:12.101Z,11.11
2023-01-07T09:21:12.097Z,11.12
2023-01-07T09:22:12.074Z,11.13
2023-01-07T09:23:12.071Z,11.19
2023-01-07T09:24:12.078Z,11.21
2023-01-07T09:25:12.044Z,11.23
2023-01-07T09:26:12.042Z,11.27
2023-01-07T09:27:12.055Z,11.28
2023-01-07T09:28:12.037Z,11.28
2023-01-07T09:29:12.013Z,11.30
2023-01-07T09:30:12.005Z,11.31
2023-01-07T09:31:12.023Z,11.33
2023-01-07T09:32:11.966Z,11.35
2023-01-07T09:33:11.979Z,11.36
2023-01-07T09:34:11.945Z,11.41
2023-01-07T09:35:11.946Z,11.44
2023-01-07T09:36:11.934Z,11.46
2023-01-07T09:37:11.917Z,11.48
2023-01-07T09:38:11.920Z,11.48
2023-01-07T09:39:11.899Z,11.48
2023-01-07T09:40:11.877Z,11.49
2023-01-07T09:41:11.887Z,11.49
2023-01-07T09:42:11.858Z,11.51
2023-01-07T09:43:11.858Z,11.49
2023-01-07T09:44:11.871Z,11.49
2023-01-07T09:45:11.827Z,11.51
2023-01-07T09:46:11.885Z,11.51
2023-01-07T09:47:11.808Z,11.53
2023-01-07T09:48:11.808Z,11.54
2023-01-07T09:49:11.807Z,11.54
2023-01-07T09:50:11.780Z,11.56
2023-01-07T09:51:11.772Z,11.59
2023-01-07T09:52:11.749Z,11.62
2023-01-07T09:53:11.769Z,11.60
2023-01-07T09:54:11.759Z,11.60
2023-01-07T09:55:11.741Z,11.62
2023-01-07T09:56:12.844Z,11.57
2023-01-07T09:57:11.709Z,11.56
2023-01-07T09:58:11.691Z,11.56
2023-01-07T09:59:11.699Z,11.56
2023-01-07T10:00:11.679Z,11.59
2023-01-07T10:01:11.677Z,11.59
2023-01-07T10:02:11.666Z,11.57
2023-01-07T10:03:11.641Z,11.57
2023-01-07T10:04:11.713Z,11.60
2023-01-07T10:05:11.657Z,11.62
2023-01-07T10:06:11.637Z,11.60
2023-01-07T10:07:11.609Z,11.59
2023-01-07T10:08:31.900Z,11.59
2023-01-07T10:09:12.573Z,11.57
2023-01-07T10:10:11.565Z,11.60
2023-01-07T10:11:11.572Z,11.62
2023-01-07T10:12:11.541Z,11.66
2023-01-07T10:13:11.532Z,11.69
2023-01-07T10:14:11.513Z,11.70
2023-01-07T10:15:11.523Z,11.72
2023-01-07T10:16:11.546Z,11.75
2023-01-07T10:17:11.502Z,11.74
2023-01-07T10:18:11.477Z,11.69
2023-01-07T10:19:11.473Z,11.67
2023-01-07T10:20:11.473Z,11.72
2023-01-07T10:21:11.445Z,11.75
2023-01-07T10:22:11.433Z,11.78
2023-01-07T10:23:11.424Z,11.81
2023-01-07T10:24:11.414Z,11.82
2023-01-07T10:25:11.414Z,11.84
2023-01-07T10:26:11.404Z,11.90
2023-01-07T10:27:11.381Z,11.93
2023-01-07T10:28:11.364Z,11.93
2023-01-07T10:29:11.362Z,11.96
2023-01-07T10:30:11.364Z,11.97
2023-01-07T10:31:11.362Z,11.96
2023-01-07T10:32:11.361Z,11.98
2023-01-07T10:33:11.317Z,12.00
2023-01-07T10:34:11.303Z,12.05
2023-01-07T10:35:11.305Z,12.08
2023-01-07T10:36:11.278Z,12.13
2023-01-07T10:37:11.289Z,12.16
2023-01-07T10:38:11.287Z,12.21
2023-01-07T10:39:11.282Z,12.19
2023-01-07T10:40:11.857Z,12.21
2023-01-07T10:41:11.236Z,12.19
2023-01-07T10:42:11.230Z,12.21
2023-01-07T10:43:11.210Z,12.22
2023-01-07T10:44:11.200Z,12.21
2023-01-07T10:45:11.192Z,12.23
2023-01-07T10:46:11.528Z,12.22
2023-01-07T10:47:11.884Z,12.25
2023-01-07T10:48:11.180Z,12.21
2023-01-07T10:49:11.165Z,12.19
2023-01-07T10:50:11.126Z,12.18
2023-01-07T10:51:11.151Z,12.15
2023-01-07T10:52:11.113Z,12.13
2023-01-07T10:53:11.126Z,12.15
2023-01-07T10:54:11.090Z,12.11
2023-01-07T10:55:11.083Z,12.08
2023-01-07T10:56:11.064Z,12.04
2023-01-07T10:57:11.064Z,12.00
2023-01-07T10:58:11.041Z,12.01
2023-01-07T10:59:12.262Z,12.00
2023-01-07T11:00:11.022Z,12.00
2023-01-07T11:01:11.076Z,11.98
2023-01-07T11:02:11.180Z,11.98
2023-01-07T11:03:11.088Z,12.00
2023-01-07T11:04:10.992Z,12.01
2023-01-07T11:05:10.985Z,12.03
2023-01-07T11:06:10.959Z,12.04
2023-01-07T11:07:10.952Z,12.05
2023-01-07T11:08:10.942Z,12.05
2023-01-07T11:09:10.933Z,12.12
2023-01-07T11:10:10.932Z,12.13
2023-01-07T11:11:10.913Z,12.16
2023-01-07T11:12:10.894Z,12.19
2023-01-07T11:13:10.892Z,12.22
2023-01-07T11:14:10.882Z,12.25
2023-01-07T11:15:10.928Z,12.26
2023-01-07T11:16:10.890Z,12.30
2023-01-07T11:17:10.848Z,12.29
2023-01-07T11:18:11.758Z,12.29
2023-01-07T11:19:10.856Z,12.30
2023-01-07T11:20:10.819Z,12.33
2023-01-07T11:21:42.921Z,12.36
2023-01-07T11:22:11.784Z,12.38
2023-01-07T11:23:10.782Z,12.43
2023-01-07T11:24:10.767Z,12.46
2023-01-07T11:25:10.775Z,12.54
2023-01-07T11:26:10.752Z,12.58
2023-01-07T11:27:10.736Z,12.62
2023-01-07T11:28:10.733Z,12.70
2023-01-07T11:29:10.735Z,12.71
2023-01-07T11:30:10.705Z,12.76
2023-01-07T11:31:10.711Z,12.74
2023-01-07T11:32:10.695Z,12.77
2023-01-07T11:33:10.677Z,12.79
2023-01-07T11:34:10.680Z,12.81
2023-01-07T11:35:10.649Z,12.88
2023-01-07T11:36:10.640Z,12.94
2023-01-07T11:37:10.628Z,12.96
2023-01-07T11:38:10.632Z,12.99
2023-01-07T11:39:11.610Z,13.07
2023-01-07T11:40:12.454Z,13.12
2023-01-07T11:41:11.584Z,13.12
2023-01-07T11:42:10.581Z,13.16
2023-01-07T11:43:11.322Z,13.19
2023-01-07T11:44:10.570Z,13.21
2023-01-07T11:45:11.256Z,13.28
2023-01-07T11:46:21.149Z,13.35
2023-01-07T11:47:12.247Z,13.44
2023-01-07T11:48:10.573Z,13.54
2023-01-07T11:49:11.200Z,13.69
2023-01-07T11:50:10.499Z,13.93
2023-01-07T11:51:10.611Z,14.49
2023-01-07T11:52:10.493Z,15.58
2023-01-07T11:53:10.508Z,16.95
2023-01-07T11:54:10.640Z,18.38
2023-01-07T11:55:10.490Z,19.70
2023-01-07T11:56:10.422Z,20.93
2023-01-07T11:57:10.529Z,22.17
2023-01-07T11:58:28.090Z,23.15
2023-01-07T11:59:11.457Z,23.89
2023-01-07T12:00:10.393Z,24.49
2023-01-07T12:01:10.470Z,25.36
2023-01-07T12:02:10.376Z,25.90
2023-01-07T12:03:10.420Z,26.35
2023-01-07T12:04:10.357Z,26.98
2023-01-07T12:05:10.624Z,27.45
2023-01-07T12:06:10.319Z,27.99
2023-01-07T12:07:10.314Z,28.21
2023-01-07T12:08:10.315Z,28.67
2023-01-07T12:09:10.581Z,29.00
2023-01-07T12:10:10.275Z,29.36
2023-01-07T12:11:10.276Z,29.66
2023-01-07T12:12:10.261Z,29.94
2023-01-07T12:13:10.247Z,30.07
2023-01-07T12:14:10.236Z,30.29
2023-01-07T12:15:10.273Z,30.45
2023-01-07T12:16:10.290Z,30.70
2023-01-07T12:17:10.205Z,30.85
2023-01-07T12:18:10.213Z,30.79
2023-01-07T12:19:10.221Z,30.93
2023-01-07T12:20:10.244Z,30.91
2023-01-07T12:21:10.162Z,31.03
2023-01-07T12:22:10.147Z,31.09
2023-01-07T12:23:10.143Z,31.15
2023-01-07T12:24:10.131Z,30.98
2023-01-07T12:25:10.409Z,31.16
2023-01-07T12:26:10.150Z,31.01
2023-01-07T12:27:10.088Z,30.93
2023-01-07T12:28:10.088Z,30.60
2023-01-07T12:29:10.081Z,30.64
2023-01-07T12:30:10.063Z,30.59
2023-01-07T12:31:10.339Z,30.63
2023-01-07T12:32:10.052Z,30.68
2023-01-07T12:33:10.031Z,30.72
2023-01-07T12:34:10.025Z,30.67
2023-01-07T12:35:15.103Z,30.59
2023-01-07T12:36:11.004Z,30.66
2023-01-07T12:37:10.007Z,30.67
2023-01-07T12:38:09.984Z,30.15
2023-01-07T12:39:09.986Z,30.25
2023-01-07T12:40:09.962Z,30.40
2023-01-07T12:41:09.969Z,30.45
2023-01-07T12:42:10.005Z,30.32
2023-01-07T12:43:09.929Z,30.07
2023-01-07T12:44:09.941Z,29.94
2023-01-07T12:45:09.914Z,29.45
2023-01-07T12:46:09.982Z,29.27
2023-01-07T12:47:32.732Z,28.67
2023-01-07T12:48:10.899Z,28.42
2023-01-07T12:49:09.866Z,28.03
2023-01-07T12:50:09.857Z,28.02
2023-01-07T12:51:09.839Z,27.99
2023-01-07T12:52:09.948Z,27.99